Terminal Aerodrome Forecast
Issued by NWS

Home | Current Version | Previous Version | Text Only | Print | Product List | Glossary On
Versions: 1 2 3 4 5 6 7 8 9 10 11 12 13 14 15 16 17 18 19 20 21 22 23 24 25 26 27
249
FTUS46 KPDT 181236 AAB
TAFALW
TAF AMD
KALW 181236Z 1813/1912 31006KT 1SM -FZRA BR OVC002
     FM181400 16008KT 3SM -FZRAPL BR SCT035 OVC060
     FM181700 16014G20KT 5SM -RA BR SCT035 OVC070
     FM182200 16016G24KT P6SM VCSH SCT045 OVC090=

USA.gov is the U.S. government's official web portal to all federal, state and local government web resources and services.